Time;durP1;ratioP1;P1;durP2;ratioP2;P2;SDS_P1;SDS_P2;PMS_P1;PMS_P2;Temp;Humidity;BMP_temperature;BMP_pressure;BME280_temperature;BME280_humidity;BME280_pressure;Samples;Min_cycle;Max_cycle;Signal;HPM_P1;HPM_P2
2023/06/14 00:01:21;;;;;;;6.45;4.40;;;16.30;1.00;;;;;;7384286;19;20040;-64
2023/06/14 00:03:52;;;;;;;5.28;3.95;;;16.40;1.00;;;;;;7384964;19;20023;-66
2023/06/14 00:06:24;;;;;;;7.70;3.85;;;16.30;1.00;;;;;;7383631;19;20192;-67
2023/06/14 00:08:54;;;;;;;9.30;4.03;;;16.20;1.00;;;;;;7384966;19;20028;-67
2023/06/14 00:11:26;;;;;;;5.85;4.00;;;16.00;1.00;;;;;;7383580;19;20868;-68
2023/06/14 00:13:59;;;;;;;6.22;4.18;;;16.00;1.00;;;;;;7385290;19;20014;-67
2023/06/14 00:16:29;;;;;;;7.65;4.50;;;16.00;1.00;;;;;;7383843;19;20018;-67
2023/06/14 00:18:59;;;;;;;7.63;4.80;;;16.00;1.00;;;;;;7386025;19;20019;-68
2023/06/14 00:21:29;;;;;;;6.78;4.63;;;16.10;1.00;;;;;;7383028;19;20018;-67
2023/06/14 00:24:00;;;;;;;8.20;4.75;;;16.00;1.00;;;;;;7383343;19;20035;-66
2023/06/14 00:26:31;;;;;;;7.43;4.57;;;15.90;1.00;;;;;;7384067;19;20028;-67
2023/06/14 00:29:03;;;;;;;7.22;4.80;;;15.90;1.00;;;;;;7385106;19;20399;-67
2023/06/14 00:31:33;;;;;;;7.78;5.00;;;15.80;1.00;;;;;;7384935;19;20018;-68
2023/06/14 00:34:03;;;;;;;8.88;4.82;;;15.80;1.00;;;;;;7385783;19;20007;-67
2023/06/14 00:36:33;;;;;;;7.75;4.85;;;15.70;1.00;;;;;;7382970;19;20074;-68
2023/06/14 00:39:03;;;;;;;11.43;5.20;;;15.70;1.00;;;;;;7382782;19;20030;-67
2023/06/14 00:41:33;;;;;;;7.45;4.80;;;15.80;1.00;;;;;;7385220;19;20014;-67
2023/06/14 00:44:06;;;;;;;11.52;5.20;;;15.80;1.00;;;;;;7385163;19;20025;-67
2023/06/14 00:46:36;;;;;;;8.80;4.97;;;15.90;1.00;;;;;;7383923;19;20014;-67
2023/06/14 00:49:06;;;;;;;9.00;4.57;;;15.90;1.00;;;;;;7384130;19;20022;-68
2023/06/14 00:51:37;;;;;;;8.75;5.15;;;15.90;1.00;;;;;;7384484;19;20455;-67
2023/06/14 00:54:07;;;;;;;8.20;4.80;;;15.90;1.00;;;;;;7386891;19;20021;-67
2023/06/14 00:56:38;;;;;;;6.75;4.20;;;15.80;1.00;;;;;;7381604;19;20019;-67
2023/06/14 00:59:11;;;;;;;8.80;4.70;;;15.70;1.00;;;;;;7385971;19;20778;-67
2023/06/14 01:01:41;;;;;;;8.63;5.22;;;15.70;1.00;;;;;;7381822;19;20011;-66
2023/06/14 01:04:11;;;;;;;7.85;4.55;;;15.70;1.00;;;;;;7383020;19;20015;-67
2023/06/14 01:06:53;;;;;;;7.25;4.82;;;15.60;1.00;;;;;;7383098;19;20019;-67
2023/06/14 01:09:30;;;;;;;5.95;4.60;;;15.70;1.00;;;;;;7378024;19;20035;-67
2023/06/14 01:12:07;;;;;;;6.18;4.30;;;15.70;1.00;;;;;;7378376;19;20022;-67
2023/06/14 01:14:40;;;;;;;8.38;4.80;;;15.70;1.00;;;;;;7380994;19;20014;-67
2023/06/14 01:17:16;;;;;;;5.88;4.30;;;15.70;1.00;;;;;;7378700;19;20019;-67
2023/06/14 01:19:47;;;;;;;4.72;4.30;;;15.60;1.00;;;;;;7377959;19;20014;-66
2023/06/14 01:22:17;;;;;;;6.43;4.75;;;15.50;1.00;;;;;;7377790;19;20043;-67
2023/06/14 01:24:50;;;;;;;5.30;3.88;;;15.50;1.00;;;;;;7384639;19;20006;-67
2023/06/14 01:27:21;;;;;;;6.22;4.55;;;15.40;1.00;;;;;;7386419;19;20014;-67
2023/06/14 01:29:51;;;;;;;5.50;4.53;;;15.40;1.00;;;;;;7385303;19;20542;-67
2023/06/14 01:32:21;;;;;;;4.88;4.32;;;15.40;1.00;;;;;;7383292;19;20043;-67
2023/06/14 01:34:51;;;;;;;11.00;4.18;;;15.50;1.00;;;;;;7392612;19;20022;-66
2023/06/14 01:37:23;;;;;;;6.07;4.70;;;15.50;1.00;;;;;;7388427;19;20482;-66
2023/06/14 01:39:55;;;;;;;5.32;4.43;;;15.60;1.00;;;;;;7390043;19;20074;-66
2023/06/14 01:42:27;;;;;;;6.25;4.50;;;15.50;1.00;;;;;;7389719;19;20025;-68
2023/06/14 01:44:57;;;;;;;5.93;4.47;;;15.40;1.00;;;;;;7392418;19;20488;-67
2023/06/14 01:47:27;;;;;;;7.20;4.30;;;15.30;1.00;;;;;;7389656;19;20078;-67
2023/06/14 01:49:57;;;;;;;4.75;3.88;;;15.30;1.00;;;;;;7393229;19;20041;-67
2023/06/14 01:52:27;;;;;;;7.53;4.10;;;15.30;1.00;;;;;;7389902;19;20624;-67
2023/06/14 01:55:02;;;;;;;5.65;4.65;;;15.10;1.00;;;;;;7391694;19;20046;-67
2023/06/14 01:57:32;;;;;;;6.55;4.03;;;15.10;1.00;;;;;;7389469;19;20026;-67
2023/06/14 02:00:03;;;;;;;7.22;4.65;;;15.10;1.00;;;;;;7388650;19;20020;-68
2023/06/14 02:02:33;;;;;;;7.28;4.15;;;15.10;1.00;;;;;;7388609;19;20447;-67
2023/06/14 02:05:03;;;;;;;4.40;3.95;;;15.10;1.00;;;;;;7391490;19;20018;-68
2023/06/14 02:07:34;;;;;;;7.28;4.95;;;15.00;1.00;;;;;;7388615;19;20027;-66
2023/06/14 02:10:07;;;;;;;8.25;4.50;;;15.00;1.00;;;;;;7387377;19;20022;-66
2023/06/14 02:12:37;;;;;;;7.57;4.82;;;15.00;1.00;;;;;;7388926;19;20057;-67
2023/06/14 02:15:08;;;;;;;5.80;4.50;;;15.00;1.00;;;;;;7392115;19;20015;-65
2023/06/14 02:17:38;;;;;;;6.97;4.55;;;15.00;1.00;;;;;;7387934;19;20119;-67
2023/06/14 02:20:10;;;;;;;7.07;4.43;;;14.90;1.00;;;;;;7388577;19;20025;-67
2023/06/14 02:22:40;;;;;;;8.88;4.80;;;14.90;1.00;;;;;;7390024;19;20011;-66
2023/06/14 02:25:13;;;;;;;7.22;4.97;;;14.80;1.00;;;;;;7390820;19;20086;-67
2023/06/14 02:27:43;;;;;;;6.22;4.78;;;14.60;1.00;;;;;;7387790;19;20018;-67
2023/06/14 02:30:15;;;;;;;7.22;4.82;;;14.60;1.00;;;;;;7392136;19;20015;-67
2023/06/14 02:32:45;;;;;;;7.03;5.03;;;14.60;1.00;;;;;;7392517;19;20039;-66
2023/06/14 02:35:15;;;;;;;7.35;5.07;;;14.50;1.00;;;;;;7390495;19;20021;-66
2023/06/14 02:37:45;;;;;;;6.93;4.85;;;14.50;1.00;;;;;;7388540;19;20019;-67
2023/06/14 02:40:18;;;;;;;7.10;4.50;;;14.40;1.00;;;;;;7388662;19;20029;-67
2023/06/14 02:42:49;;;;;;;8.10;4.95;;;14.40;1.00;;;;;;7387115;19;20054;-67
2023/06/14 02:45:20;;;;;;;15.07;5.53;;;14.40;1.00;;;;;;7387543;19;20023;-67
2023/06/14 02:47:51;;;;;;;9.30;5.35;;;14.40;1.00;;;;;;7387115;19;20018;-67
2023/06/14 02:50:21;;;;;;;9.38;5.15;;;14.50;1.00;;;;;;7386441;19;20144;-67
2023/06/14 02:52:52;;;;;;;8.00;5.13;;;14.40;1.00;;;;;;7388067;19;20942;-67
2023/06/14 02:55:26;;;;;;;7.38;4.93;;;14.50;1.00;;;;;;7389547;19;20018;-67
2023/06/14 02:57:56;;;;;;;8.73;5.32;;;14.40;1.00;;;;;;7389434;19;20011;-67
2023/06/14 03:00:26;;;;;;;9.85;5.07;;;14.30;1.00;;;;;;7385038;19;20019;-67
2023/06/14 03:02:56;;;;;;;8.35;5.20;;;14.30;1.00;;;;;;7386897;19;20052;-68
2023/06/14 03:05:27;;;;;;;9.70;5.20;;;14.20;1.00;;;;;;7390416;19;20589;-68
2023/06/14 03:07:57;;;;;;;7.93;5.35;;;14.20;1.00;;;;;;7386475;19;20052;-68
2023/06/14 03:10:30;;;;;;;6.43;5.03;;;14.20;1.00;;;;;;7385091;19;20018;-67
2023/06/14 03:13:01;;;;;;;8.25;5.38;;;14.10;1.00;;;;;;7388845;19;20353;-68
2023/06/14 03:15:31;;;;;;;7.50;5.25;;;14.10;1.00;;;;;;7388330;19;20035;-66
2023/06/14 03:18:01;;;;;;;7.00;5.05;;;14.10;1.00;;;;;;7385833;19;20802;-67
2023/06/14 03:20:32;;;;;;;7.70;5.40;;;14.10;1.00;;;;;;7385353;19;20022;-66
2023/06/14 03:23:03;;;;;;;6.18;5.03;;;14.00;1.00;;;;;;7388872;19;20491;-67
2023/06/14 03:25:38;;;;;;;12.90;6.00;;;14.00;1.00;;;;;;7388187;19;20014;-67
2023/06/14 03:28:08;;;;;;;9.00;4.95;;;14.00;1.00;;;;;;7386019;19;20018;-67
2023/06/14 03:30:38;;;;;;;8.07;5.88;;;14.10;1.00;;;;;;7387953;19;20053;-67
2023/06/14 03:33:08;;;;;;;8.30;5.55;;;14.40;1.00;;;;;;7385591;19;20113;-67
2023/06/14 03:35:38;;;;;;;6.25;4.93;;;14.30;1.00;;;;;;7389503;19;20720;-67
2023/06/14 03:38:08;;;;;;;8.27;5.50;;;14.30;1.00;;;;;;7384851;19;20084;-67
2023/06/14 03:40:41;;;;;;;10.15;5.57;;;14.50;1.00;;;;;;7388657;19;20576;-67
2023/06/14 03:43:10;;;;;;;11.93;6.97;;;15.00;1.00;;;;;;7390210;19;20021;-67
2023/06/14 03:45:40;;;;;;;12.55;6.15;;;15.50;1.00;;;;;;7388150;19;20022;-67
2023/06/14 03:48:11;;;;;;;12.07;5.90;;;16.00;1.00;;;;;;7386201;19;20043;-66
2023/06/14 03:50:42;;;;;;;15.23;7.28;;;16.10;1.00;;;;;;7383403;19;20018;-66
2023/06/14 03:53:12;;;;;;;12.80;6.07;;;16.20;1.00;;;;;;7387208;19;20046;-66
2023/06/14 03:55:45;;;;;;;14.32;5.40;;;16.30;1.00;;;;;;7388074;19;20019;-67
2023/06/14 03:58:18;;;;;;;10.23;5.93;;;16.10;1.00;;;;;;7387899;19;20023;-67
2023/06/14 04:00:49;;;;;;;6.85;5.45;;;16.30;1.00;;;;;;7384161;19;20019;-66
2023/06/14 04:03:19;;;;;;;9.82;6.45;;;16.60;1.00;;;;;;7385664;19;20410;-67
2023/06/14 04:05:49;;;;;;;8.05;5.22;;;17.30;1.00;;;;;;7388720;19;20512;-67
2023/06/14 04:08:19;;;;;;;9.82;5.78;;;17.80;1.00;;;;;;7384497;19;20021;-68
2023/06/14 04:10:52;;;;;;;10.05;5.78;;;18.30;1.00;;;;;;7384683;19;20378;-67
2023/06/14 04:13:22;;;;;;;10.20;5.80;;;17.80;1.00;;;;;;7383870;19;20851;-68
2023/06/14 04:15:52;;;;;;;9.35;5.10;;;19.00;1.00;;;;;;7389060;19;20601;-67
2023/06/14 04:18:22;;;;;;;12.60;5.85;;;19.40;1.00;;;;;;7386693;19;20014;-66
2023/06/14 04:20:54;;;;;;;9.93;4.97;;;19.50;1.00;;;;;;7383574;19;20027;-67
2023/06/14 04:23:24;;;;;;;8.45;4.80;;;19.70;1.00;;;;;;7384790;19;20015;-67
2023/06/14 04:26:01;;;;;;;6.40;5.05;;;18.70;1.00;;;;;;7387420;19;20014;-67
2023/06/14 04:28:31;;;;;;;6.70;4.50;;;19.60;1.00;;;;;;7385135;19;20018;-67
2023/06/14 04:31:02;;;;;;;6.95;5.20;;;17.70;1.00;;;;;;7383055;19;20125;-67
2023/06/14 04:33:32;;;;;;;7.10;5.25;;;18.90;1.00;;;;;;7383396;19;20532;-67
2023/06/14 04:36:02;;;;;;;7.65;5.15;;;18.80;1.00;;;;;;7388294;19;20022;-67
2023/06/14 04:38:34;;;;;;;10.57;5.15;;;19.70;1.00;;;;;;7387611;19;20014;-67
2023/06/14 04:41:11;;;;;;;9.80;5.45;;;19.50;1.00;;;;;;7382896;19;20028;-68
2023/06/14 04:43:42;;;;;;;10.60;5.63;;;19.40;1.00;;;;;;7382802;19;20728;-67
2023/06/14 04:46:14;;;;;;;7.90;5.20;;;20.10;1.00;;;;;;7387204;19;20043;-66
2023/06/14 04:48:45;;;;;;;9.15;5.78;;;19.90;1.00;;;;;;7385276;19;20018;-67
2023/06/14 04:51:16;;;;;;;7.65;4.88;;;19.90;1.00;;;;;;7381965;19;20018;-67
2023/06/14 04:53:46;;;;;;;5.57;4.90;;;21.10;1.00;;;;;;7382092;19;20097;-67
2023/06/14 04:56:19;;;;;;;8.05;5.75;;;20.70;1.00;;;;;;7388055;19;20014;-67
2023/06/14 04:58:49;;;;;;;10.63;6.10;;;20.40;1.00;;;;;;7389493;19;20010;-67
2023/06/14 05:01:19;;;;;;;12.52;5.47;;;21.40;1.00;;;;;;7382810;19;20020;-66
2023/06/14 05:03:49;;;;;;;6.25;5.00;;;21.70;1.00;;;;;;7382185;19;20037;-66
2023/06/14 05:06:20;;;;;;;7.88;5.38;;;21.50;1.00;;;;;;7386173;19;20018;-67
2023/06/14 05:08:50;;;;;;;7.35;4.80;;;21.90;1.00;;;;;;7388658;19;20043;-67
2023/06/14 05:11:23;;;;;;;6.75;5.47;;;23.10;1.00;;;;;;7385369;19;20082;-67
2023/06/14 05:13:54;;;;;;;10.90;5.05;;;21.90;1.00;;;;;;7390855;19;20010;-66
2023/06/14 05:16:25;;;;;;;11.90;4.97;;;21.90;1.00;;;;;;7395026;19;20086;-66
2023/06/14 05:18:55;;;;;;;7.50;5.00;;;22.50;1.00;;;;;;7390523;19;20021;-67
2023/06/14 05:21:25;;;;;;;7.22;4.88;;;20.90;1.00;;;;;;7385812;19;20015;-67
2023/06/14 05:23:55;;;;;;;7.82;4.85;;;20.90;1.00;;;;;;7387980;19;20047;-67
2023/06/14 05:26:29;;;;;;;6.90;4.90;;;21.30;1.00;;;;;;7394063;19;20025;-66
2023/06/14 05:29:01;;;;;;;6.68;5.25;;;21.50;1.00;;;;;;7391362;19;20514;-67
2023/06/14 05:31:31;;;;;;;6.60;5.13;;;21.90;1.00;;;;;;7388208;19;20018;-66
2023/06/14 05:34:01;;;;;;;7.25;5.50;;;21.00;1.00;;;;;;7387798;19;20014;-67
2023/06/14 05:36:31;;;;;;;8.40;5.45;;;21.50;1.00;;;;;;7393363;19;20118;-67
2023/06/14 05:39:02;;;;;;;6.60;5.45;;;21.80;1.00;;;;;;7390352;19;20644;-67
2023/06/14 05:41:35;;;;;;;7.38;5.28;;;21.60;1.00;;;;;;7391381;19;20079;-66
2023/06/14 05:44:05;;;;;;;9.25;5.28;;;21.50;1.00;;;;;;7388764;19;20018;-67
2023/06/14 05:46:35;;;;;;;6.43;5.22;;;21.00;1.00;;;;;;7392837;19;20101;-67
2023/06/14 05:49:05;;;;;;;7.80;5.60;;;21.40;1.00;;;;;;7387887;19;20376;-67
2023/06/14 05:51:35;;;;;;;8.35;5.22;;;21.00;1.00;;;;;;7388354;19;20404;-66
2023/06/14 05:54:05;;;;;;;6.45;5.70;;;20.70;1.00;;;;;;7387924;19;20013;-67
2023/06/14 05:56:38;;;;;;;7.22;5.32;;;20.50;1.00;;;;;;7391716;19;20222;-67
2023/06/14 05:59:07;;;;;;;7.68;5.50;;;20.70;1.00;;;;;;7391549;19;20006;-67
2023/06/14 06:01:40;;;;;;;5.90;5.20;;;20.30;1.00;;;;;;7389608;19;20022;-67
2023/06/14 06:04:10;;;;;;;8.38;5.15;;;20.10;1.00;;;;;;7387533;19;20014;-66
2023/06/14 06:06:40;;;;;;;6.97;4.80;;;18.90;1.00;;;;;;7391186;19;20022;-67
2023/06/14 06:09:10;;;;;;;8.77;5.40;;;18.60;1.00;;;;;;7387111;19;20015;-66
2023/06/14 06:11:42;;;;;;;9.52;5.22;;;18.00;1.00;;;;;;7387096;19;20019;-67
2023/06/14 06:14:22;;;;;;;9.18;5.28;;;18.00;1.00;;;;;;7388249;19;20019;-68
2023/06/14 06:16:52;;;;;;;7.53;5.85;;;18.10;1.00;;;;;;7392034;19;20014;-66
2023/06/14 06:19:22;;;;;;;7.43;4.82;;;17.60;1.00;;;;;;7386435;19;20011;-67
2023/06/14 06:21:52;;;;;;;7.03;4.82;;;18.00;1.00;;;;;;7386455;19;20018;-67
2023/06/14 06:24:22;;;;;;;6.40;4.72;;;18.30;1.00;;;;;;7388970;19;20013;-67
2023/06/14 06:26:55;;;;;;;9.70;5.38;;;18.40;1.00;;;;;;7391671;19;20524;-67
2023/06/14 06:29:25;;;;;;;6.88;4.65;;;18.40;1.00;;;;;;7386806;19;20015;-67
2023/06/14 06:31:56;;;;;;;7.72;5.13;;;18.70;1.00;;;;;;7390343;19;20017;-67
2023/06/14 06:34:26;;;;;;;7.68;5.32;;;19.40;1.00;;;;;;7386915;19;20474;-67
2023/06/14 06:36:55;;;;;;;6.75;4.97;;;19.70;1.00;;;;;;7391101;19;20014;-67
2023/06/14 06:39:26;;;;;;;11.20;6.35;;;20.60;1.00;;;;;;7386159;19;20077;-66
2023/06/14 06:41:58;;;;;;;7.60;5.30;;;20.20;1.00;;;;;;7386109;19;20015;-66
2023/06/14 06:44:28;;;;;;;8.48;4.95;;;19.30;1.00;;;;;;7385545;19;20078;-67
2023/06/14 06:46:59;;;;;;;9.13;4.32;;;18.80;1.00;;;;;;7390166;19;20018;-66
2023/06/14 06:49:30;;;;;;;9.02;5.03;;;19.20;1.00;;;;;;7386032;19;20032;-66
2023/06/14 06:52:04;;;;;;;5.72;4.70;;;19.70;1.00;;;;;;7385927;19;20015;-67
2023/06/14 06:54:35;;;;;;;8.55;4.90;;;19.70;1.00;;;;;;7385514;19;20347;-67
2023/06/14 06:57:08;;;;;;;7.82;4.72;;;19.80;1.00;;;;;;7384955;19;20768;-67
2023/06/14 06:59:38;;;;;;;7.83;5.00;;;20.10;1.00;;;;;;7386526;19;20019;-67
2023/06/14 07:02:09;;;;;;;6.47;4.82;;;19.90;1.00;;;;;;7385902;19;20014;-67
2023/06/14 07:04:39;;;;;;;7.88;4.50;;;19.90;1.00;;;;;;7385065;19;20378;-67
2023/06/14 07:07:09;;;;;;;5.75;4.90;;;19.70;1.00;;;;;;7383385;19;20610;-67
2023/06/14 07:09:40;;;;;;;10.32;4.68;;;20.10;1.00;;;;;;7384489;19;20047;-66
2023/06/14 07:12:13;;;;;;;6.05;4.72;;;20.00;1.00;;;;;;7385505;19;20331;-68
2023/06/14 07:14:43;;;;;;;8.82;5.20;;;19.90;1.00;;;;;;7383680;19;20014;-68
2023/06/14 07:17:13;;;;;;;9.52;4.80;;;19.80;1.00;;;;;;7384670;19;20011;-68
2023/06/14 07:19:43;;;;;;;6.07;4.82;;;20.20;1.00;;;;;;7384065;19;20427;-68
2023/06/14 07:22:13;;;;;;;6.80;4.75;;;20.00;1.00;;;;;;7383065;19;20014;-67
2023/06/14 07:24:43;;;;;;;13.80;4.93;;;20.30;1.00;;;;;;7383759;19;20023;-67
2023/06/14 07:27:15;;;;;;;7.22;4.47;;;20.30;1.00;;;;;;7387758;19;20016;-67
2023/06/14 07:29:45;;;;;;;6.32;4.55;;;20.00;1.00;;;;;;7386237;19;20026;-67
2023/06/14 07:32:15;;;;;;;7.70;4.80;;;20.30;1.00;;;;;;7384256;19;20015;-67
2023/06/14 07:34:45;;;;;;;5.63;4.55;;;20.70;1.00;;;;;;7384482;19;20022;-66
2023/06/14 07:37:15;;;;;;;10.38;4.70;;;20.20;1.00;;;;;;7383931;19;20010;-67
2023/06/14 07:39:45;;;;;;;10.98;5.18;;;19.80;1.00;;;;;;7384353;19;20022;-66
2023/06/14 07:42:17;;;;;;;7.25;5.15;;;20.50;1.00;;;;;;7384107;19;20018;-66
2023/06/14 07:44:47;;;;;;;9.82;4.80;;;20.60;1.00;;;;;;7382973;19;20014;-66
2023/06/14 07:47:17;;;;;;;11.60;5.68;;;20.20;1.00;;;;;;7383572;19;20015;-67
2023/06/14 07:49:47;;;;;;;10.07;5.15;;;20.50;1.00;;;;;;7380350;19;20039;-67
2023/06/14 07:52:17;;;;;;;6.95;4.82;;;20.10;1.00;;;;;;7381977;19;20443;-67
2023/06/14 07:54:47;;;;;;;10.43;5.28;;;20.70;1.00;;;;;;7381690;19;20010;-68
2023/06/14 07:57:20;;;;;;;6.72;4.97;;;21.20;1.00;;;;;;7387555;19;20014;-68
2023/06/14 07:59:50;;;;;;;10.73;5.60;;;20.80;1.00;;;;;;7386391;19;20518;-68
2023/06/14 08:02:20;;;;;;;9.20;5.20;;;20.90;1.00;;;;;;7383188;19;20025;-67
2023/06/14 08:04:50;;;;;;;8.23;5.13;;;20.70;1.00;;;;;;7384128;19;20033;-67
2023/06/14 08:07:20;;;;;;;8.25;5.05;;;20.20;1.00;;;;;;7384399;19;20108;-67
2023/06/14 08:09:50;;;;;;;5.80;5.10;;;20.30;1.00;;;;;;7380798;19;20018;-67
2023/06/14 08:12:23;;;;;;;9.95;5.45;;;20.30;1.00;;;;;;7384122;19;20043;-67
2023/06/14 08:14:53;;;;;;;11.25;5.63;;;20.50;1.00;;;;;;7385456;19;20014;-67
2023/06/14 08:17:41;;;;;;;9.07;4.70;;;20.50;1.00;;;;;;7387423;19;20118;-67
2023/06/14 08:20:13;;;;;;;6.90;4.75;;;20.90;1.00;;;;;;7384644;19;20019;-67
2023/06/14 08:22:43;;;;;;;7.85;5.28;;;20.60;1.00;;;;;;7382893;19;20032;-67
2023/06/14 08:25:13;;;;;;;12.43;5.60;;;20.70;1.00;;;;;;7384968;19;20014;-67
2023/06/14 08:27:46;;;;;;;9.30;5.20;;;20.80;1.00;;;;;;7382402;19;20022;-68
2023/06/14 08:30:17;;;;;;;8.13;5.18;;;20.50;1.00;;;;;;7385683;19;20037;-67
2023/06/14 08:32:47;;;;;;;11.90;5.10;;;20.90;1.00;;;;;;7384090;19;20366;-67
2023/06/14 08:35:31;;;;;;;7.97;4.72;;;20.80;1.00;;;;;;7383833;19;20402;-67
2023/06/14 08:38:01;;;;;;;11.70;5.28;;;21.10;1.00;;;;;;7384291;19;20015;-67
2023/06/14 08:40:32;;;;;;;6.85;4.97;;;21.00;1.00;;;;;;7383072;19;20043;-66
2023/06/14 08:43:06;;;;;;;8.07;5.05;;;21.30;1.00;;;;;;7385188;19;20085;-67
2023/06/14 08:45:36;;;;;;;6.55;5.40;;;21.60;1.00;;;;;;7383747;19;20017;-65
2023/06/14 08:48:06;;;;;;;7.38;5.40;;;21.70;1.00;;;;;;7383311;19;20474;-67
2023/06/14 08:50:38;;;;;;;6.35;5.07;;;21.80;1.00;;;;;;7378830;19;20384;-66
2023/06/14 08:53:13;;;;;;;7.28;5.13;;;21.50;1.00;;;;;;7382997;19;20018;-66
2023/06/14 08:55:43;;;;;;;8.95;4.97;;;21.80;1.00;;;;;;7382103;19;20512;-66
2023/06/14 08:58:17;;;;;;;6.05;4.88;;;22.10;1.00;;;;;;7385698;19;20049;-67
2023/06/14 09:00:48;;;;;;;10.25;4.95;;;21.80;1.00;;;;;;7380199;19;20019;-67
2023/06/14 09:03:20;;;;;;;6.90;4.97;;;21.80;1.00;;;;;;7380601;19;20010;-67
2023/06/14 09:05:53;;;;;;;9.60;4.90;;;21.80;1.00;;;;;;7384216;19;20025;-66
2023/06/14 09:08:23;;;;;;;6.05;4.88;;;21.70;1.00;;;;;;7384736;19;20035;-66
2023/06/14 09:10:53;;;;;;;8.50;4.78;;;22.20;1.00;;;;;;7381009;19;20021;-67
2023/06/14 09:13:25;;;;;;;10.35;5.38;;;22.20;1.00;;;;;;7379826;19;20026;-67
2023/06/14 09:16:00;;;;;;;8.20;4.93;;;22.50;1.00;;;;;;7383671;19;20082;-68
2023/06/14 09:18:38;;;;;;;6.07;4.75;;;22.20;1.00;;;;;;7381382;19;20485;-67
2023/06/14 09:21:09;;;;;;;6.32;5.22;;;22.70;1.00;;;;;;7383683;19;20470;-67
2023/06/14 09:23:40;;;;;;;5.95;4.70;;;22.30;1.00;;;;;;7381870;19;20018;-67
2023/06/14 09:26:11;;;;;;;6.80;4.97;;;22.40;1.00;;;;;;7382195;19;20371;-66
2023/06/14 09:28:47;;;;;;;8.00;4.78;;;22.50;1.00;;;;;;7382475;19;20021;-67
2023/06/14 09:31:19;;;;;;;8.65;5.10;;;22.60;1.00;;;;;;7379750;19;20095;-67
2023/06/14 09:33:51;;;;;;;7.28;4.30;;;22.50;1.00;;;;;;7381078;19;20023;-67
2023/06/14 09:36:24;;;;;;;5.78;4.78;;;22.20;1.00;;;;;;7383676;19;20588;-68
2023/06/14 09:38:55;;;;;;;9.20;4.38;;;22.90;1.00;;;;;;7380516;19;20043;-68
2023/06/14 09:41:33;;;;;;;5.32;4.10;;;23.30;1.00;;;;;;7378978;19;20019;-68
2023/06/14 09:44:08;;;;;;;8.68;4.70;;;23.50;1.00;;;;;;7381158;19;20365;-67
2023/06/14 09:46:47;;;;;;;4.82;4.10;;;23.60;1.00;;;;;;7383249;19;20060;-67
2023/06/14 09:49:17;;;;;;;6.80;4.18;;;23.40;1.00;;;;;;7379627;19;20014;-67
2023/06/14 09:51:51;;;;;;;6.43;4.32;;;23.30;1.00;;;;;;7380983;19;20035;-67
2023/06/14 09:54:25;;;;;;;5.45;4.07;;;22.90;1.00;;;;;;7388155;19;20507;-67
2023/06/14 09:56:56;;;;;;;11.90;4.28;;;22.50;1.00;;;;;;7390372;19;20554;-68
2023/06/14 09:59:33;;;;;;;6.80;4.32;;;22.80;1.00;;;;;;7392315;19;20011;-68
2023/06/14 10:02:09;;;;;;;5.43;3.95;;;23.30;1.00;;;;;;7387045;19;20022;-67
2023/06/14 10:04:41;;;;;;;7.03;4.07;;;23.30;1.00;;;;;;7387158;19;20015;-67
2023/06/14 10:07:12;;;;;;;6.45;3.63;;;23.20;1.00;;;;;;7392246;19;20018;-67
2023/06/14 10:09:45;;;;;;;8.93;3.92;;;22.80;1.00;;;;;;7387906;19;20511;-68
2023/06/14 10:12:20;;;;;;;5.25;4.53;;;23.50;1.00;;;;;;7387843;19;20021;-68
2023/06/14 10:14:55;;;;;;;7.35;3.80;;;23.80;1.00;;;;;;7387018;19;20486;-68
2023/06/14 10:17:35;;;;;;;6.65;3.85;;;23.70;1.00;;;;;;7391855;19;20038;-67
2023/06/14 10:20:27;;;;;;;6.00;3.97;;;23.80;1.00;;;;;;7387009;19;20018;-67
2023/06/14 10:23:02;;;;;;;4.40;3.58;;;24.00;1.00;;;;;;7384035;19;20014;-68
2023/06/14 10:25:33;;;;;;;5.38;3.50;;;23.70;1.00;;;;;;7387202;19;20030;-67
2023/06/14 10:28:18;;;;;;;4.72;3.50;;;23.30;1.00;;;;;;7389553;19;20022;-67
2023/06/14 10:31:13;;;;;;;4.57;3.55;;;23.40;1.00;;;;;;7392632;19;20014;-67
2023/06/14 10:33:52;;;;;;;6.97;3.60;;;23.70;1.00;;;;;;7390178;19;20010;-67
2023/06/14 10:36:30;;;;;;;7.30;3.83;;;23.60;1.00;;;;;;7390303;19;20034;-68
2023/06/14 10:39:02;;;;;;;9.93;3.50;;;23.80;1.00;;;;;;7388351;19;20018;-67
2023/06/14 10:41:32;;;;;;;6.45;3.97;;;23.70;1.00;;;;;;7387424;19;20102;-68
2023/06/14 10:44:41;;;;;;;7.65;3.60;;;23.10;1.00;;;;;;7385499;19;20015;-67
2023/06/14 10:47:28;;;;;;;7.50;4.03;;;23.00;1.00;;;;;;7391787;19;20125;-67
2023/06/14 10:50:00;;;;;;;5.00;2.88;;;23.50;1.00;;;;;;7386839;19;20021;-68
2023/06/14 10:52:32;;;;;;;8.55;3.28;;;24.00;1.00;;;;;;7387928;19;20018;-67
2023/06/14 10:55:14;;;;;;;5.75;3.33;;;23.20;1.00;;;;;;7386068;19;20018;-67
2023/06/14 10:57:51;;;;;;;5.82;3.70;;;22.90;1.00;;;;;;7388753;19;20453;-67
2023/06/14 11:00:26;;;;;;;8.35;3.42;;;23.10;1.00;;;;;;7390052;19;20033;-67
2023/06/14 11:03:40;;;;;;;6.30;3.03;;;23.40;1.00;;;;;;7385600;19;20126;-68
2023/06/14 11:06:16;;;;;;;3.40;3.10;;;23.70;1.00;;;;;;7382454;19;20014;-67
2023/06/14 11:09:30;;;;;;;6.10;3.53;;;24.00;1.00;;;;;;7385507;19;20022;-67
2023/06/14 11:12:01;;;;;;;5.00;3.08;;;24.30;1.00;;;;;;7388794;19;20006;-66
2023/06/14 11:14:33;;;;;;;5.90;3.30;;;23.60;1.00;;;;;;7392226;19;20040;-66
2023/06/14 11:17:03;;;;;;;3.40;3.10;;;23.90;1.00;;;;;;7388003;19;20019;-67
2023/06/14 11:19:36;;;;;;;5.50;3.22;;;23.00;1.00;;;;;;7384522;19;20373;-67
2023/06/14 11:22:06;;;;;;;5.32;3.50;;;23.30;1.00;;;;;;7387990;19;20017;-68
2023/06/14 11:24:37;;;;;;;5.20;3.35;;;23.30;1.00;;;;;;7385921;19;20085;-65
2023/06/14 11:27:08;;;;;;;7.10;3.30;;;23.50;1.00;;;;;;7386663;19;20018;-67
2023/06/14 11:29:38;;;;;;;6.38;3.17;;;23.90;1.00;;;;;;7388628;19;20367;-67
2023/06/14 11:32:13;;;;;;;6.80;3.40;;;23.60;1.00;;;;;;7382953;19;20022;-67
2023/06/14 11:34:48;;;;;;;8.30;4.00;;;23.80;1.00;;;;;;7385375;19;20015;-68
2023/06/14 11:37:18;;;;;;;6.57;2.92;;;24.40;1.00;;;;;;7389307;19;20014;-67
2023/06/14 11:39:48;;;;;;;6.25;3.20;;;25.30;1.00;;;;;;7385570;19;20100;-68
2023/06/14 11:42:18;;;;;;;5.15;2.90;;;25.20;1.00;;;;;;7383582;19;20050;-67
2023/06/14 11:44:49;;;;;;;5.78;3.45;;;24.50;1.00;;;;;;7386423;19;20014;-67
2023/06/14 11:47:19;;;;;;;6.15;3.20;;;24.50;1.00;;;;;;7387888;19;20493;-68
2023/06/14 11:49:51;;;;;;;6.03;3.15;;;24.30;1.00;;;;;;7379136;19;20022;-67
2023/06/14 11:52:23;;;;;;;4.85;3.47;;;23.80;1.00;;;;;;7385846;19;20010;-67
2023/06/14 11:54:53;;;;;;;4.75;3.22;;;24.00;1.00;;;;;;7384105;19;20014;-68
2023/06/14 11:57:23;;;;;;;4.93;3.25;;;23.90;1.00;;;;;;7386107;19;20015;-67
2023/06/14 11:59:54;;;;;;;4.03;3.30;;;24.50;1.00;;;;;;7388230;19;20139;-67
2023/06/14 12:02:25;;;;;;;3.70;3.40;;;24.50;1.00;;;;;;7387557;19;20006;-68
2023/06/14 12:04:57;;;;;;;7.35;3.53;;;24.40;1.00;;;;;;7385484;19;20054;-68
2023/06/14 12:07:29;;;;;;;3.90;3.00;;;24.80;1.00;;;;;;7385119;19;20380;-67
2023/06/14 12:10:10;;;;;;;9.70;3.42;;;24.90;1.00;;;;;;7387700;19;20040;-67
2023/06/14 12:12:41;;;;;;;8.43;3.47;;;24.30;1.00;;;;;;7387082;19;20014;-67
2023/06/14 12:15:13;;;;;;;3.28;2.97;;;24.60;1.00;;;;;;7391315;19;20018;-68
2023/06/14 12:17:45;;;;;;;5.45;3.70;;;25.10;1.00;;;;;;7391797;19;20014;-67
2023/06/14 12:20:21;;;;;;;4.60;3.42;;;24.20;1.00;;;;;;7384422;19;20359;-67
2023/06/14 12:22:57;;;;;;;4.53;3.58;;;24.10;1.00;;;;;;7388893;19;20018;-67
2023/06/14 12:25:31;;;;;;;;;;;23.80;1.00;;;;;;7388773;19;20014;-67
2023/06/14 12:28:01;;;;;;;5.78;3.50;;;23.50;1.00;;;;;;7390005;19;19930;-67
2023/06/14 12:30:31;;;;;;;6.20;3.13;;;23.60;1.00;;;;;;7390027;19;20101;-67
2023/06/14 12:33:01;;;;;;;4.35;3.20;;;23.90;1.00;;;;;;7391557;19;20058;-67
2023/06/14 12:35:34;;;;;;;6.97;3.40;;;23.40;1.00;;;;;;7386352;19;20010;-67
2023/06/14 12:38:04;;;;;;;4.32;3.80;;;23.40;1.00;;;;;;7382903;19;20376;-67
2023/06/14 12:40:35;;;;;;;6.60;3.85;;;23.00;1.00;;;;;;7387269;19;20775;-67
2023/06/14 12:43:05;;;;;;;3.78;3.35;;;23.80;1.00;;;;;;7386922;19;20017;-66
2023/06/14 12:45:35;;;;;;;5.22;3.67;;;24.10;1.00;;;;;;7385556;19;20035;-68
2023/06/14 12:48:05;;;;;;;5.03;3.83;;;24.50;1.00;;;;;;7386584;19;20015;-67
2023/06/14 12:50:38;;;;;;;7.40;3.83;;;24.70;1.00;;;;;;7387125;19;20010;-67
2023/06/14 12:53:08;;;;;;;5.15;3.50;;;24.60;1.00;;;;;;7388986;19;20014;-67
2023/06/14 12:55:38;;;;;;;4.10;3.40;;;24.50;1.00;;;;;;7386361;19;20014;-67
2023/06/14 12:58:08;;;;;;;4.72;3.88;;;24.50;1.00;;;;;;7386498;19;20018;-67
2023/06/14 13:00:38;;;;;;;7.78;3.22;;;24.30;1.00;;;;;;7385781;19;20018;-67
2023/06/14 13:03:08;;;;;;;4.20;3.58;;;24.50;1.00;;;;;;7387030;19;20014;-67
2023/06/14 13:05:41;;;;;;;8.70;4.10;;;24.60;1.00;;;;;;7384931;19;20039;-67
2023/06/14 13:08:11;;;;;;;5.75;3.40;;;25.00;1.00;;;;;;7384864;19;20038;-67
2023/06/14 13:10:41;;;;;;;4.90;3.80;;;25.40;1.00;;;;;;7387762;19;20543;-66
2023/06/14 13:13:12;;;;;;;4.60;3.47;;;25.30;1.00;;;;;;7385236;19;20023;-67
2023/06/14 13:15:43;;;;;;;8.52;3.63;;;24.70;1.00;;;;;;7382932;19;20082;-68
2023/06/14 13:18:13;;;;;;;6.55;3.78;;;24.60;1.00;;;;;;7385876;19;20014;-67
2023/06/14 13:20:46;;;;;;;3.63;3.17;;;24.70;1.00;;;;;;7387232;19;20803;-67